Time;durP1;ratioP1;P1;durP2;ratioP2;P2;SDS_P1;SDS_P2;PMS_P1;PMS_P2;Temp;Humidity;BMP_temperature;BMP_pressure;BME280_temperature;BME280_humidity;BME280_pressure;Samples;Min_cycle;Max_cycle;Signal;HPM_P1;HPM_P2
2022/04/21 00:01:17;;;;;;;7.15;4.45;;;12.70;79.90;;;;;;7343606;19;108316;-87
2022/04/21 00:03:44;;;;;;;5.65;4.40;;;12.60;80.30;;;;;;7346409;19;107918;-88
2022/04/21 00:06:12;;;;;;;5.13;4.53;;;12.60;79.80;;;;;;7342769;19;108410;-86
2022/04/21 00:08:39;;;;;;;7.43;4.45;;;12.60;80.30;;;;;;7349294;19;108165;-86
2022/04/21 00:11:06;;;;;;;6.10;4.60;;;12.60;80.30;;;;;;7344712;19;110906;-87
2022/04/21 00:13:34;;;;;;;8.88;4.47;;;12.50;80.50;;;;;;7341955;19;112183;-88
2022/04/21 00:16:01;;;;;;;11.15;5.00;;;12.50;80.70;;;;;;7341349;19;107901;-87
2022/04/21 00:18:28;;;;;;;6.63;4.32;;;12.40;81.00;;;;;;7344055;19;108169;-87
2022/04/21 00:20:57;;;;;;;6.50;4.07;;;12.40;81.40;;;;;;7344973;19;108950;-87
2022/04/21 00:23:28;;;;;;;8.45;4.63;;;12.40;81.40;;;;;;7342646;19;109155;-87
2022/04/21 00:26:00;;;;;;;7.47;4.40;;;12.40;81.60;;;;;;7343508;19;108965;-87
2022/04/21 00:28:29;;;;;;;5.68;4.60;;;12.30;81.90;;;;;;7344413;19;109176;-87
2022/04/21 00:30:58;;;;;;;8.93;4.53;;;12.30;82.10;;;;;;7348367;19;108243;-86
2022/04/21 00:33:25;;;;;;;6.00;4.55;;;12.20;82.30;;;;;;7345305;19;108864;-87
2022/04/21 00:35:52;;;;;;;6.65;4.25;;;12.20;83.10;;;;;;7343675;19;107910;-86
2022/04/21 00:38:19;;;;;;;8.13;4.03;;;12.20;82.80;;;;;;7345521;19;108357;-87
2022/04/21 00:40:49;;;;;;;8.98;4.47;;;12.20;82.50;;;;;;7342601;19;109243;-86
2022/04/21 00:43:16;;;;;;;7.95;4.40;;;12.20;82.30;;;;;;7344514;19;107834;-87
2022/04/21 00:45:43;;;;;;;6.38;4.80;;;12.30;82.40;;;;;;7343000;19;108946;-87
2022/04/21 00:48:12;;;;;;;8.43;4.30;;;12.30;82.40;;;;;;7343972;19;111625;-87
2022/04/21 00:50:39;;;;;;;8.80;4.00;;;12.30;82.60;;;;;;7343191;19;107914;-87
2022/04/21 00:53:07;;;;;;;9.35;4.47;;;12.30;82.40;;;;;;7347599;19;108405;-88
2022/04/21 00:55:37;;;;;;;9.50;4.55;;;12.30;82.60;;;;;;7341660;19;107534;-87
2022/04/21 00:58:05;;;;;;;6.25;4.70;;;12.20;83.00;;;;;;7341711;19;110970;-87
2022/04/21 01:00:32;;;;;;;8.20;4.70;;;12.10;83.80;;;;;;7340769;19;108946;-87
2022/04/21 01:03:01;;;;;;;5.97;4.50;;;12.00;84.10;;;;;;7341777;19;107848;-87
2022/04/21 01:05:31;;;;;;;9.63;4.75;;;12.10;83.70;;;;;;7341150;19;107446;-87
2022/04/21 01:08:03;;;;;;;5.95;3.92;;;12.00;84.50;;;;;;7341511;19;109145;-87
2022/04/21 01:10:32;;;;;;;7.55;4.43;;;12.00;83.90;;;;;;7344135;19;110710;-86
2022/04/21 01:12:59;;;;;;;7.88;4.70;;;12.10;83.40;;;;;;7341850;19;108369;-87
2022/04/21 01:15:27;;;;;;;6.20;4.63;;;12.10;83.60;;;;;;7347515;19;108603;-87
2022/04/21 01:17:55;;;;;;;10.05;4.40;;;12.00;83.80;;;;;;7342803;19;110672;-86
2022/04/21 01:20:23;;;;;;;6.60;4.25;;;12.00;84.40;;;;;;7342877;19;108078;-87
2022/04/21 01:22:52;;;;;;;8.65;4.43;;;11.90;84.80;;;;;;7341363;19;110083;-86
2022/04/21 01:25:20;;;;;;;5.15;4.25;;;11.80;85.20;;;;;;7341702;19;108783;-87
2022/04/21 01:27:51;;;;;;;6.22;4.40;;;11.80;85.50;;;;;;7341116;19;109884;-88
2022/04/21 01:30:19;;;;;;;9.02;4.93;;;11.80;85.40;;;;;;7342951;19;108280;-86
2022/04/21 01:32:48;;;;;;;5.72;4.28;;;11.80;85.40;;;;;;7342768;19;112181;-87
2022/04/21 01:35:15;;;;;;;7.53;4.57;;;11.80;84.80;;;;;;7346505;19;108891;-86
2022/04/21 01:43:16;;;;;;;11.02;4.88;;;11.90;84.80;;;;;;7342189;19;108351;-86
2022/04/21 01:45:44;;;;;;;6.45;3.88;;;11.90;84.80;;;;;;7339513;19;108199;-86
2022/04/21 01:48:11;;;;;;;7.60;4.55;;;11.90;84.40;;;;;;7339093;19;109268;-86
2022/04/21 01:50:38;;;;;;;5.95;4.57;;;11.90;85.30;;;;;;7339382;19;108938;-86
2022/04/21 01:53:06;;;;;;;9.35;4.55;;;11.70;85.90;;;;;;7339051;19;110572;-87
2022/04/21 01:55:33;;;;;;;10.73;4.95;;;11.70;85.80;;;;;;7338997;19;108158;-86
2022/04/21 01:58:00;;;;;;;6.30;4.65;;;11.60;86.30;;;;;;7346421;19;108713;-85
2022/04/21 02:00:28;;;;;;;8.38;4.82;;;11.60;86.30;;;;;;7339773;19;109474;-86
2022/04/21 02:02:55;;;;;;;7.45;4.80;;;11.60;86.90;;;;;;7342134;19;107940;-86
2022/04/21 02:05:22;;;;;;;10.65;4.63;;;11.50;86.60;;;;;;7339434;19;108261;-87
2022/04/21 02:07:49;;;;;;;9.90;4.97;;;11.50;87.10;;;;;;7338714;19;108646;-86
2022/04/21 02:10:20;;;;;;;7.32;4.80;;;11.40;87.50;;;;;;7338466;19;108092;-86
2022/04/21 02:12:48;;;;;;;13.70;4.60;;;11.30;87.90;;;;;;7338846;19;107752;-86
2022/04/21 02:15:17;;;;;;;6.50;5.10;;;11.30;88.20;;;;;;7339556;19;108484;-86
2022/04/21 02:17:45;;;;;;;6.13;4.85;;;11.20;88.90;;;;;;7340557;19;107851;-85
2022/04/21 02:20:15;;;;;;;10.32;5.00;;;11.20;89.40;;;;;;7344914;19;107589;-85
2022/04/21 02:22:46;;;;;;;5.95;4.60;;;11.10;90.10;;;;;;7340854;19;107893;-85
2022/04/21 02:25:16;;;;;;;8.77;5.03;;;11.10;89.70;;;;;;7342529;19;108003;-86
2022/04/21 02:27:45;;;;;;;6.60;5.10;;;11.10;89.80;;;;;;7345427;19;109424;-86
2022/04/21 02:30:15;;;;;;;8.95;5.00;;;11.10;90.00;;;;;;7347771;19;109587;-86
2022/04/21 02:32:43;;;;;;;6.40;4.45;;;11.10;89.50;;;;;;7348144;19;107210;-87
2022/04/21 02:35:11;;;;;;;8.55;4.50;;;11.20;88.70;;;;;;7347226;19;108889;-86
2022/04/21 02:37:41;;;;;;;6.53;4.82;;;11.30;88.50;;;;;;7346609;19;108071;-86
2022/04/21 02:40:09;;;;;;;6.25;4.95;;;11.30;89.00;;;;;;7347294;19;110813;-87
2022/04/21 02:42:40;;;;;;;7.53;5.10;;;11.20;89.20;;;;;;7352966;19;107984;-87
2022/04/21 02:45:09;;;;;;;8.23;4.90;;;11.10;90.00;;;;;;7347890;19;108208;-88
2022/04/21 02:47:37;;;;;;;5.43;4.55;;;11.00;90.30;;;;;;7342482;19;108434;-87
2022/04/21 02:50:06;;;;;;;6.57;4.53;;;10.90;90.50;;;;;;7344025;19;109202;-86
2022/04/21 02:52:38;;;;;;;6.43;4.93;;;10.80;90.50;;;;;;7343651;19;108405;-87
2022/04/21 02:57:53;;;;;;;7.47;5.30;;;10.80;90.90;;;;;;7348120;19;108345;-87
2022/04/21 03:00:20;;;;;;;8.48;5.00;;;10.70;91.00;;;;;;7346604;19;108273;-87
2022/04/21 03:02:47;;;;;;;7.15;5.25;;;10.70;91.30;;;;;;7348590;19;108906;-86
2022/04/21 03:05:15;;;;;;;9.35;5.82;;;10.60;91.50;;;;;;7345835;19;108842;-87
2022/04/21 03:07:45;;;;;;;9.63;6.35;;;10.60;91.80;;;;;;7342215;19;108779;-88
2022/04/21 03:10:12;;;;;;;10.93;6.00;;;10.60;91.80;;;;;;7347326;19;112612;-89
2022/04/21 03:12:39;;;;;;;10.23;6.00;;;10.50;92.10;;;;;;7346291;19;108422;-89
2022/04/21 03:15:11;;;;;;;8.73;5.82;;;10.50;92.40;;;;;;7347784;19;109313;-88
2022/04/21 03:17:38;;;;;;;7.35;5.88;;;10.50;92.50;;;;;;7348955;19;110168;-88
2022/04/21 03:20:07;;;;;;;6.90;5.68;;;10.50;92.50;;;;;;7348476;19;107602;-88
2022/04/21 03:25:20;;;;;;;8.63;5.72;;;10.40;92.80;;;;;;7349284;19;108019;-87
2022/04/21 03:27:50;;;;;;;8.50;5.65;;;10.40;93.00;;;;;;7352912;19;111210;-88
2022/04/21 03:30:17;;;;;;;7.03;5.28;;;10.30;93.20;;;;;;7346780;19;107788;-89
2022/04/21 03:32:45;;;;;;;7.78;5.07;;;10.30;93.20;;;;;;7347816;19;107770;-89
2022/04/21 03:35:12;;;;;;;7.10;5.60;;;10.30;93.30;;;;;;7347235;19;107964;-89
2022/04/21 03:37:39;;;;;;;8.18;5.90;;;10.20;93.40;;;;;;7348461;19;107846;-89
2022/04/21 03:40:07;;;;;;;10.05;6.57;;;10.20;93.50;;;;;;7348213;19;108255;-88
2022/04/21 03:42:34;;;;;;;9.10;5.85;;;10.20;93.60;;;;;;7346657;19;108654;-88
2022/04/21 03:45:01;;;;;;;7.30;6.28;;;10.20;93.70;;;;;;7347789;19;108472;-88
2022/04/21 03:47:28;;;;;;;10.98;6.25;;;10.20;93.70;;;;;;7351657;19;108394;-89
2022/04/21 03:49:56;;;;;;;11.48;6.32;;;10.10;93.80;;;;;;7346856;19;107482;-88
2022/04/21 03:52:23;;;;;;;8.93;6.72;;;10.10;93.90;;;;;;7345962;19;108200;-88
2022/04/21 03:54:50;;;;;;;8.07;5.80;;;10.10;94.00;;;;;;7346380;19;107566;-88
2022/04/21 03:57:18;;;;;;;8.85;5.18;;;10.00;94.00;;;;;;7345089;19;108578;-89
2022/04/21 03:59:45;;;;;;;12.65;6.55;;;10.00;94.20;;;;;;7347138;19;108406;-87
2022/04/21 04:02:12;;;;;;;8.20;6.22;;;10.00;94.30;;;;;;7346702;19;108992;-88
2022/04/21 04:04:39;;;;;;;9.98;5.90;;;10.00;94.30;;;;;;7349109;19;108242;-88
2022/04/21 04:12:42;;;;;;;8.38;5.65;;;9.90;94.60;;;;;;7346081;19;108956;-89
2022/04/21 04:15:10;;;;;;;10.40;6.32;;;9.80;94.60;;;;;;7347201;19;108891;-89
2022/04/21 04:17:38;;;;;;;6.03;5.30;;;9.90;94.90;;;;;;7348390;19;108022;-89
2022/04/21 04:20:06;;;;;;;6.30;5.55;;;9.90;95.30;;;;;;7343846;19;107742;-88
2022/04/21 04:22:36;;;;;;;9.15;5.90;;;9.80;95.00;;;;;;7346281;19;108627;-88
2022/04/21 04:25:04;;;;;;;9.48;5.65;;;9.80;95.00;;;;;;7346043;19;111257;-89
2022/04/21 04:27:31;;;;;;;7.82;6.07;;;9.80;95.20;;;;;;7346285;19;108151;-89
2022/04/21 04:29:58;;;;;;;;;;;9.70;95.50;;;;;;7346315;19;108438;-88
2022/04/21 04:32:25;;;;;;;10.45;5.82;;;9.70;96.10;;;;;;7356327;19;107535;-88
2022/04/21 04:34:52;;;;;;;9.38;6.70;;;9.60;95.80;;;;;;7347334;19;108707;-90
2022/04/21 04:37:19;;;;;;;6.57;5.63;;;9.60;96.10;;;;;;7346506;19;108309;-89
2022/04/21 04:39:46;;;;;;;;;;;9.60;95.90;;;;;;7348458;19;107920;-89
2022/04/21 04:42:16;;;;;;;10.18;6.10;;;9.60;96.80;;;;;;7350553;19;112202;-89
2022/04/21 04:44:47;;;;;;;11.15;6.35;;;9.50;96.60;;;;;;7348109;19;107171;-89
2022/04/21 04:47:14;;;;;;;7.00;5.57;;;9.60;96.70;;;;;;7345408;19;107458;-90
2022/04/21 04:49:42;;;;;;;11.68;5.82;;;9.60;96.70;;;;;;7345545;19;108255;-89
2022/04/21 04:52:09;;;;;;;12.80;5.93;;;9.80;96.60;;;;;;7346102;19;107813;-89
2022/04/21 04:54:38;;;;;;;7.88;5.80;;;9.90;96.50;;;;;;7351065;19;107794;-89
2022/04/21 04:57:05;;;;;;;8.38;6.07;;;9.90;96.40;;;;;;7345735;19;108473;-89
2022/04/21 04:59:33;;;;;;;15.15;5.93;;;9.90;96.30;;;;;;7345001;19;108902;-90
2022/04/21 05:02:01;;;;;;;10.82;6.38;;;9.90;96.50;;;;;;7346019;19;107977;-88
2022/04/21 05:04:29;;;;;;;9.32;6.20;;;9.90;96.50;;;;;;7345824;19;108069;-89
2022/04/21 05:06:57;;;;;;;7.38;5.75;;;9.90;96.90;;;;;;7346869;19;108151;-89
2022/04/21 05:09:25;;;;;;;9.15;6.57;;;9.80;97.00;;;;;;7344312;19;109768;-88
2022/04/21 05:11:55;;;;;;;11.43;6.38;;;9.80;97.00;;;;;;7345799;19;107919;-88
2022/04/21 05:14:23;;;;;;;9.38;5.18;;;9.90;96.90;;;;;;7345033;19;108719;-87
2022/04/21 05:16:53;;;;;;;10.13;6.35;;;9.90;96.90;;;;;;7351378;19;108127;-89
2022/04/21 05:19:21;;;;;;;10.25;6.38;;;9.90;97.00;;;;;;7346200;19;108653;-89
2022/04/21 05:21:50;;;;;;;10.55;6.25;;;9.90;97.10;;;;;;7344353;19;108661;-89
2022/04/21 05:24:17;;;;;;;8.75;6.53;;;10.00;97.00;;;;;;7344533;19;110707;-89
2022/04/21 05:26:45;;;;;;;11.27;6.13;;;10.00;97.10;;;;;;7347092;19;110554;-89
2022/04/21 05:32:02;;;;;;;8.87;6.10;;;10.20;96.60;;;;;;7349310;19;108377;-91
2022/04/21 05:34:31;;;;;;;8.63;5.82;;;10.30;96.70;;;;;;7349182;19;107153;-92
2022/04/21 05:36:59;;;;;;;8.35;5.97;;;10.20;96.80;;;;;;7350097;19;107740;-91
2022/04/21 05:39:27;;;;;;;9.93;5.95;;;10.30;96.90;;;;;;7352803;19;107106;-91
2022/04/21 05:41:56;;;;;;;10.20;5.90;;;10.30;96.80;;;;;;7347177;19;108640;-91
2022/04/21 05:44:24;;;;;;;10.27;5.47;;;10.30;97.00;;;;;;7347042;19;107584;-91
2022/04/21 05:46:51;;;;;;;8.23;5.85;;;10.40;96.90;;;;;;7347402;19;108230;-92
2022/04/21 05:49:19;;;;;;;11.80;5.68;;;10.50;96.70;;;;;;7347745;19;107909;-90
2022/04/21 05:51:48;;;;;;;11.38;6.20;;;10.50;96.70;;;;;;7347029;19;108123;-91
2022/04/21 05:54:15;;;;;;;14.40;6.40;;;10.50;96.70;;;;;;7346652;19;108602;-92
2022/04/21 05:56:43;;;;;;;8.30;5.60;;;10.60;97.10;;;;;;7346508;19;109104;-92
2022/04/21 05:59:10;;;;;;;10.65;5.65;;;10.60;96.70;;;;;;7349986;19;108395;-92
2022/04/21 06:01:37;;;;;;;14.80;5.88;;;10.70;96.70;;;;;;7347184;19;107922;-90
2022/04/21 06:04:05;;;;;;;12.52;5.82;;;10.70;96.70;;;;;;7348722;19;108613;-90
2022/04/21 06:06:33;;;;;;;11.10;5.80;;;10.70;96.60;;;;;;7348080;19;108020;-91
2022/04/21 06:09:03;;;;;;;8.77;5.90;;;10.80;96.60;;;;;;7344657;19;109072;-89
2022/04/21 06:11:34;;;;;;;13.38;5.63;;;10.90;96.50;;;;;;7347160;19;107522;-92
2022/04/21 06:14:06;;;;;;;9.98;5.57;;;11.00;96.40;;;;;;7345748;19;107724;-91
2022/04/21 06:16:36;;;;;;;17.13;6.07;;;11.20;96.00;;;;;;7348745;19;107933;-90
2022/04/21 06:19:07;;;;;;;13.18;5.40;;;11.20;96.00;;;;;;7348449;19;107870;-91
2022/04/21 06:21:34;;;;;;;10.23;5.57;;;11.30;96.00;;;;;;7352123;19;107912;-91
2022/04/21 06:24:04;;;;;;;17.33;5.70;;;11.40;95.70;;;;;;7347045;19;106992;-90
2022/04/21 06:26:32;;;;;;;7.97;5.63;;;11.60;95.50;;;;;;7347501;19;110528;-91
2022/04/21 06:29:02;;;;;;;7.20;5.55;;;11.70;95.20;;;;;;7345231;19;109469;-92
2022/04/21 06:31:29;;;;;;;7.78;5.20;;;11.80;94.90;;;;;;7346161;19;109066;-90
2022/04/21 06:33:58;;;;;;;8.07;5.50;;;12.00;94.60;;;;;;7346977;19;107077;-90
2022/04/21 06:36:26;;;;;;;8.77;5.78;;;12.10;94.30;;;;;;7346614;19;108896;-90
2022/04/21 06:38:53;;;;;;;10.35;5.15;;;12.20;94.10;;;;;;7346236;19;110405;-92
2022/04/21 06:41:20;;;;;;;12.25;5.82;;;12.20;93.90;;;;;;7346573;19;107032;-92
2022/04/21 06:49:19;;;;;;;9.57;5.88;;;12.30;94.30;;;;;;7346233;19;109382;-92
2022/04/21 06:51:46;;;;;;;15.98;5.47;;;12.30;93.90;;;;;;7349116;19;107193;-91
2022/04/21 06:54:13;;;;;;;13.70;5.85;;;12.40;94.10;;;;;;7346248;19;107598;-92
2022/04/21 06:56:40;;;;;;;6.30;4.88;;;12.60;94.10;;;;;;7345406;19;108019;-91
2022/04/21 06:59:07;;;;;;;11.05;6.18;;;12.70;93.70;;;;;;7348044;19;108785;-91
2022/04/21 07:01:35;;;;;;;10.55;5.20;;;12.80;93.40;;;;;;7346297;19;109105;-92
2022/04/21 07:04:07;;;;;;;17.52;5.28;;;13.00;93.10;;;;;;7347368;19;108992;-90
2022/04/21 07:06:36;;;;;;;6.05;5.03;;;13.10;93.00;;;;;;7352521;19;107988;-91
2022/04/21 07:09:03;;;;;;;6.70;5.30;;;13.20;92.80;;;;;;7345584;19;109526;-93
2022/04/21 07:11:33;;;;;;;12.05;5.68;;;13.30;92.70;;;;;;7351269;19;107252;-92
2022/04/21 07:14:00;;;;;;;11.15;5.22;;;13.50;92.50;;;;;;7349557;19;107909;-92
2022/04/21 07:16:28;;;;;;;7.20;5.05;;;13.60;92.50;;;;;;7352739;19;108438;-93
2022/04/21 07:18:56;;;;;;;10.80;5.10;;;13.60;92.20;;;;;;7352221;19;110567;-91
2022/04/21 07:21:23;;;;;;;18.80;5.40;;;13.80;92.30;;;;;;7352786;19;110931;-92
2022/04/21 07:23:50;;;;;;;9.15;5.10;;;13.90;92.50;;;;;;7353023;19;108136;-92
2022/04/21 07:26:17;;;;;;;8.45;5.03;;;13.90;92.10;;;;;;7352207;19;107431;-91
2022/04/21 07:28:45;;;;;;;9.45;4.80;;;14.00;92.00;;;;;;7354181;19;108314;-89
2022/04/21 07:31:12;;;;;;;8.00;4.53;;;14.10;91.70;;;;;;7348102;19;107191;-91
2022/04/21 07:33:40;;;;;;;13.57;5.13;;;14.30;91.40;;;;;;7349505;19;108605;-91
2022/04/21 07:36:07;;;;;;;18.02;4.20;;;14.40;91.20;;;;;;7350258;19;108289;-91
2022/04/21 07:38:36;;;;;;;15.82;4.65;;;14.50;91.00;;;;;;7349261;19;108262;-91
2022/04/21 07:41:07;;;;;;;11.32;4.35;;;14.60;90.60;;;;;;7348991;19;107923;-91
2022/04/21 07:43:37;;;;;;;8.30;4.28;;;14.70;90.20;;;;;;7350386;19;107870;-88
2022/04/21 07:46:05;;;;;;;9.98;4.80;;;14.80;90.00;;;;;;7348557;19;107596;-91
2022/04/21 07:51:23;;;;;;;8.40;4.35;;;15.00;90.20;;;;;;7350169;19;107719;-92
2022/04/21 07:53:50;;;;;;;13.48;5.18;;;15.00;89.10;;;;;;7350791;19;108260;-91
2022/04/21 07:56:19;;;;;;;7.10;4.20;;;15.10;89.60;;;;;;7347381;19;108884;-90
2022/04/21 07:58:49;;;;;;;5.63;4.20;;;15.10;88.30;;;;;;7348357;19;108283;-89
2022/04/21 08:01:16;;;;;;;8.82;3.95;;;15.10;87.30;;;;;;7348847;19;108219;-92
2022/04/21 08:03:46;;;;;;;9.93;4.53;;;15.00;87.80;;;;;;7350140;19;107916;-90
2022/04/21 08:06:13;;;;;;;13.00;4.30;;;15.20;88.00;;;;;;7346067;19;108448;-90
2022/04/21 08:08:40;;;;;;;9.07;3.65;;;15.30;87.10;;;;;;7345153;19;108297;-90
2022/04/21 08:11:11;;;;;;;5.95;3.70;;;15.40;86.50;;;;;;7350043;19;108809;-89
2022/04/21 08:13:39;;;;;;;11.32;4.00;;;15.50;86.00;;;;;;7344261;19;108551;-91
2022/04/21 08:16:06;;;;;;;8.68;4.10;;;15.70;85.50;;;;;;7346646;19;109129;-91
2022/04/21 08:18:33;;;;;;;7.55;3.30;;;15.80;86.00;;;;;;7347593;19;108033;-89
2022/04/21 08:21:02;;;;;;;7.75;3.33;;;15.90;85.20;;;;;;7346436;19;107232;-90
2022/04/21 08:23:49;;;;;;;6.40;3.40;;;15.90;81.90;;;;;;7346121;19;109088;-90
2022/04/21 08:34:44;;;;;;;7.10;3.00;;;16.40;81.30;;;;;;7353141;19;108225;-89
2022/04/21 08:37:12;;;;;;;20.15;3.60;;;16.40;78.90;;;;;;7347000;19;108091;-91
2022/04/21 08:39:39;;;;;;;6.22;3.08;;;16.30;79.70;;;;;;7347194;19;107144;-90
2022/04/21 08:42:11;;;;;;;7.00;3.03;;;16.40;79.40;;;;;;7346612;19;107946;-88
2022/04/21 08:44:43;;;;;;;8.32;3.30;;;16.60;79.70;;;;;;7346139;19;109892;-89
2022/04/21 08:47:14;;;;;;;10.75;3.10;;;16.70;78.60;;;;;;7345224;19;107939;-89
2022/04/21 08:49:48;;;;;;;10.02;3.55;;;16.70;78.80;;;;;;7345225;19;107818;-89
2022/04/21 08:52:17;;;;;;;18.10;3.47;;;16.80;78.20;;;;;;7345407;19;107831;-92
2022/04/21 08:54:46;;;;;;;13.65;3.50;;;16.90;78.40;;;;;;7345294;19;107607;-90
2022/04/21 08:57:14;;;;;;;4.60;3.20;;;17.10;78.00;;;;;;7348717;19;108696;-90
2022/04/21 08:59:41;;;;;;;8.07;3.30;;;17.00;74.80;;;;;;7346144;19;109951;-91
2022/04/21 09:02:09;;;;;;;9.88;3.22;;;16.90;77.70;;;;;;7346192;19;108365;-91
2022/04/21 09:04:36;;;;;;;9.70;3.60;;;16.90;76.50;;;;;;7344279;19;108143;-91
2022/04/21 09:07:48;;;;;;;10.73;3.40;;;17.00;77.80;;;;;;7345617;19;108432;-89
2022/04/21 09:10:35;;;;;;;14.93;3.33;;;17.20;76.70;;;;;;7343385;19;110350;-90
2022/04/21 09:13:03;;;;;;;10.32;3.28;;;17.30;77.30;;;;;;7341475;19;108649;-90
2022/04/21 09:15:32;;;;;;;6.00;3.28;;;17.40;75.90;;;;;;7344297;19;111534;-88
2022/04/21 09:18:07;;;;;;;8.38;3.58;;;17.60;75.50;;;;;;7343346;19;108486;-91
2022/04/21 09:20:39;;;;;;;10.05;3.20;;;17.60;75.20;;;;;;7352329;19;108329;-90
2022/04/21 09:23:11;;;;;;;6.18;3.47;;;17.70;75.80;;;;;;7342930;19;108212;-86
2022/04/21 09:25:45;;;;;;;9.43;3.17;;;17.50;72.90;;;;;;7344864;19;108379;-88
2022/04/21 09:28:29;;;;;;;4.05;2.85;;;17.40;74.00;;;;;;7345666;19;109745;-88
2022/04/21 09:30:58;;;;;;;15.60;2.85;;;17.50;73.40;;;;;;7336116;19;108283;-89
2022/04/21 09:33:52;;;;;;;4.72;3.00;;;17.50;75.30;;;;;;7345234;19;108799;-90
2022/04/21 09:36:19;;;;;;;14.30;3.60;;;17.60;73.80;;;;;;7342943;19;107190;-93
2022/04/21 09:38:58;;;;;;;8.07;2.97;;;17.70;73.60;;;;;;7347148;19;108383;-87
2022/04/21 09:41:29;;;;;;;7.22;3.20;;;17.90;74.10;;;;;;7345004;19;109591;-90
2022/04/21 09:47:05;;;;;;;14.50;3.30;;;18.00;72.40;;;;;;7346791;19;109292;-91
2022/04/21 09:49:36;;;;;;;7.38;3.05;;;18.00;72.80;;;;;;7344255;19;108280;-90
2022/04/21 09:52:04;;;;;;;13.27;2.80;;;18.00;73.60;;;;;;7345596;19;111495;-91
2022/04/21 09:54:33;;;;;;;4.93;2.92;;;18.00;71.20;;;;;;7346291;19;108128;-92
2022/04/21 09:57:02;;;;;;;9.40;2.55;;;18.00;70.40;;;;;;7346399;19;108017;-93
2022/04/21 09:59:35;;;;;;;8.52;2.30;;;18.00;71.80;;;;;;7347594;19;110258;-91
2022/04/21 10:02:03;;;;;;;12.40;2.50;;;18.10;70.20;;;;;;7348548;19;108808;-91
2022/04/21 10:04:30;;;;;;;13.98;1.98;;;18.20;69.30;;;;;;7351597;19;107142;-89
2022/04/21 10:06:58;;;;;;;4.72;2.67;;;18.20;69.10;;;;;;7347172;19;109517;-91
2022/04/21 10:09:27;;;;;;;5.20;2.58;;;18.20;68.40;;;;;;7347717;19;108323;-87
2022/04/21 10:11:57;;;;;;;4.50;2.20;;;18.30;68.80;;;;;;7346696;19;108186;-90
2022/04/21 10:14:26;;;;;;;9.48;2.38;;;18.00;67.90;;;;;;7345770;19;109530;-91
2022/04/21 10:16:53;;;;;;;15.90;2.65;;;18.00;69.10;;;;;;7346055;19;107843;-88
2022/04/21 10:19:21;;;;;;;13.05;2.50;;;18.20;68.40;;;;;;7344217;19;108366;-92
2022/04/21 10:22:00;;;;;;;5.47;2.50;;;18.40;68.60;;;;;;7348112;19;108913;-91
2022/04/21 10:24:29;;;;;;;8.55;2.20;;;18.50;67.00;;;;;;7343369;19;108007;-90
2022/04/21 10:26:57;;;;;;;7.50;2.35;;;18.60;66.70;;;;;;7349817;19;108228;-90
2022/04/21 10:29:27;;;;;;;3.08;1.90;;;18.70;66.80;;;;;;7345094;19;107523;-91
2022/04/21 10:32:05;;;;;;;3.13;2.42;;;18.70;65.80;;;;;;7343329;19;108687;-91
2022/04/21 10:34:45;;;;;;;4.70;2.38;;;18.80;66.50;;;;;;7347502;19;108494;-93
2022/04/21 10:37:15;;;;;;;12.80;2.97;;;18.90;65.10;;;;;;7342914;19;107365;-90
2022/04/21 10:40:06;;;;;;;8.55;2.90;;;19.00;65.60;;;;;;7342772;19;108213;-91
2022/04/21 10:42:51;;;;;;;8.88;2.60;;;19.00;66.20;;;;;;7345175;19;108189;-89
2022/04/21 10:45:23;;;;;;;8.65;2.95;;;19.10;65.70;;;;;;7347321;19;108335;-89
2022/04/21 10:48:09;;;;;;;3.15;2.28;;;19.10;64.80;;;;;;7353051;19;107671;-91
2022/04/21 10:50:39;;;;;;;7.93;3.03;;;19.20;63.50;;;;;;7360792;19;108854;-91
2022/04/21 10:58:42;;;;;;;6.70;2.55;;;19.30;64.20;;;;;;7344847;19;108285;-83
2022/04/21 11:01:10;;;;;;;5.30;2.38;;;19.20;65.30;;;;;;7343652;19;107338;-83
2022/04/21 11:03:39;;;;;;;7.05;2.70;;;19.00;63.10;;;;;;7346642;19;108656;-83
2022/04/21 11:06:08;;;;;;;3.13;2.58;;;18.90;64.60;;;;;;7346653;19;108338;-82
2022/04/21 11:08:35;;;;;;;6.60;2.17;;;19.00;67.30;;;;;;7347132;19;108551;-84
2022/04/21 11:11:03;;;;;;;4.97;2.30;;;19.10;64.10;;;;;;7345474;19;108923;-82
2022/04/21 11:13:49;;;;;;;13.55;2.17;;;19.10;63.20;;;;;;7349666;19;109177;-85
2022/04/21 11:16:40;;;;;;;3.47;1.80;;;19.10;63.30;;;;;;7345491;19;108135;-85
2022/04/21 11:19:29;;;;;;;12.40;1.75;;;19.20;63.50;;;;;;7346408;19;108219;-84
2022/04/21 11:22:03;;;;;;;7.65;1.45;;;19.30;60.90;;;;;;7345572;19;108661;-84
2022/04/21 11:24:54;;;;;;;5.88;1.60;;;19.40;59.70;;;;;;7345249;19;108137;-84
2022/04/21 11:27:22;;;;;;;7.07;1.60;;;19.40;59.00;;;;;;7345633;19;110495;-82
2022/04/21 11:29:49;;;;;;;3.85;1.50;;;19.20;59.50;;;;;;7344907;19;110810;-82
2022/04/21 11:32:18;;;;;;;3.72;1.30;;;19.10;61.80;;;;;;7342113;19;109425;-83
2022/04/21 11:34:59;;;;;;;4.95;1.65;;;19.00;59.60;;;;;;7345580;19;109091;-83
2022/04/21 11:37:59;;;;;;;5.47;1.75;;;19.10;61.20;;;;;;7351415;19;109845;-83
2022/04/21 11:40:36;;;;;;;7.43;1.75;;;19.30;60.20;;;;;;7345099;19;107957;-84
2022/04/21 11:43:11;;;;;;;5.70;1.80;;;19.40;60.40;;;;;;7345311;19;107378;-83
2022/04/21 11:45:40;;;;;;;3.15;1.80;;;19.60;60.50;;;;;;7344201;19;108957;-84
2022/04/21 11:48:12;;;;;;;5.18;2.00;;;19.50;59.80;;;;;;7342845;19;108774;-83
2022/04/21 11:50:46;;;;;;;4.65;1.90;;;19.60;59.30;;;;;;7344908;19;108332;-82
2022/04/21 11:53:18;;;;;;;5.20;2.00;;;19.50;59.80;;;;;;7343796;19;108020;-83
2022/04/21 11:55:47;;;;;;;8.63;1.83;;;19.50;60.90;;;;;;7344958;19;108580;-82
2022/04/21 11:58:27;;;;;;;3.45;1.90;;;19.60;59.80;;;;;;7342495;19;107630;-83
2022/04/21 12:06:44;;;;;;;12.40;2.53;;;20.10;58.90;;;;;;7344888;19;108912;-82
2022/04/21 12:09:16;;;;;;;5.47;1.48;;;20.30;57.70;;;;;;7343932;19;108261;-84
2022/04/21 12:11:51;;;;;;;4.68;1.30;;;20.50;55.90;;;;;;7342432;19;107631;-83
2022/04/21 12:14:19;;;;;;;1.50;1.27;;;20.50;52.80;;;;;;7342878;19;108945;-83
2022/04/21 12:16:50;;;;;;;4.20;1.50;;;20.50;54.10;;;;;;7344528;19;107642;-82
2022/04/21 12:19:45;;;;;;;4.13;1.50;;;20.60;53.20;;;;;;7343257;19;108242;-83
2022/04/21 12:22:29;;;;;;;12.65;1.52;;;20.60;52.30;;;;;;7349835;19;108427;-83
2022/04/21 12:24:57;;;;;;;9.77;1.40;;;20.50;53.50;;;;;;7344756;19;107513;-84
2022/04/21 12:27:29;;;;;;;3.33;1.48;;;20.70;52.90;;;;;;7342364;19;107981;-82
2022/04/21 12:29:58;;;;;;;3.03;1.50;;;21.00;51.90;;;;;;7341108;19;107412;-84
2022/04/21 12:32:38;;;;;;;8.23;1.58;;;20.80;51.70;;;;;;7341731;19;107931;-83
2022/04/21 12:35:07;;;;;;;3.47;1.70;;;20.90;51.50;;;;;;7344076;19;112781;-84
2022/04/21 12:38:50;;;;;;;2.78;1.00;;;21.10;51.50;;;;;;7343693;19;107144;-83
2022/04/21 12:40:39;;;;;;;9.63;1.55;;;21.30;50.70;;;;;;7344039;19;108499;-84
2022/04/21 12:43:09;;;;;;;4.13;1.02;;;21.30;50.10;;;;;;7343491;19;108666;-83
2022/04/21 12:45:37;;;;;;;4.57;1.45;;;21.60;49.90;;;;;;7347171;19;107144;-84
2022/04/21 12:48:20;;;;;;;13.50;1.55;;;21.80;50.00;;;;;;7342530;19;108991;-84
2022/04/21 12:50:47;;;;;;;7.00;1.20;;;21.90;48.40;;;;;;7341532;19;108032;-84
2022/04/21 12:53:30;;;;;;;6.55;1.60;;;21.90;48.70;;;;;;7343095;19;108495;-85
2022/04/21 12:56:11;;;;;;;2.85;1.33;;;21.90;48.00;;;;;;7342175;19;111397;-84
2022/04/21 12:58:38;;;;;;;5.50;1.27;;;21.80;49.80;;;;;;7344392;19;108050;-83
2022/04/21 13:01:05;;;;;;;2.80;1.30;;;21.90;51.20;;;;;;7341514;19;110899;-84
2022/04/21 13:03:33;;;;;;;3.03;1.20;;;22.10;50.30;;;;;;7343480;19;108964;-84
2022/04/21 13:06:00;;;;;;;9.15;1.30;;;21.90;48.30;;;;;;7343760;19;108207;-84
2022/04/21 13:08:29;;;;;;;5.20;1.30;;;21.60;46.80;;;;;;7347606;19;108852;-82
2022/04/21 13:10:57;;;;;;;2.60;1.20;;;21.40;47.70;;;;;;7340762;19;107765;-85
2022/04/21 13:13:26;;;;;;;2.50;1.10;;;21.50;48.70;;;;;;7341590;19;108395;-84
2022/04/21 13:15:55;;;;;;;3.92;1.17;;;21.70;48.30;;;;;;7340900;19;108963;-84
2022/04/21 13:18:22;;;;;;;5.05;1.00;;;21.60;48.30;;;;;;7340397;19;107192;-84
2022/04/21 13:23:35;;;;;;;3.17;0.93;;;21.90;47.60;;;;;;7342632;19;109424;-83
2022/04/21 13:26:02;;;;;;;9.15;0.98;;;22.20;46.90;;;;;;7341250;19;108139;-84
2022/04/21 13:28:49;;;;;;;7.65;0.98;;;22.20;47.20;;;;;;7341371;19;108006;-84
2022/04/21 13:34:03;;;;;;;5.38;1.10;;;22.60;45.80;;;;;;7343455;19;108070;-84
2022/04/21 13:36:30;;;;;;;15.73;1.00;;;22.60;46.50;;;;;;7340768;19;109355;-84
2022/04/21 13:39:00;;;;;;;3.08;1.10;;;22.90;47.00;;;;;;7341452;19;108107;-84
2022/04/21 13:41:27;;;;;;;10.80;1.52;;;22.70;44.90;;;;;;7340745;19;109425;-84
2022/04/21 13:43:54;;;;;;;13.88;1.20;;;22.70;46.10;;;;;;7340359;19;109708;-84
2022/04/21 13:46:42;;;;;;;4.30;0.90;;;22.70;44.50;;;;;;7341975;19;107698;-84